Main page
METAR-TAF:

METAR-TAF

Airports :

Belfast International Airport

Belfast, Northern Ireland

latitude: 54-39N, longitude: 006-13W, elevation: 81 m

Current weather observation

The report was made 22 minutes ago, at 21:20 UTC
Wind 3 kt from the Southeast
Temperature 3°C
Humidity 93%
Pressure 1027 hPa
Visibility 10 km or more
no clouds below 1500 m and no cumulonimbus

METAR: EGAA 172120Z 13003KT CAVOK 03/02 Q1027

Time: 22:42 (21:42 UTC)

Forecast

The report was made 4 hours and 42 minutes ago, at 17:00 UTC
Forecast valid from 17 at 18 UTC to 18 at 18 UTC
Wind 6 kt from the West/Northwest
Visibility 10 km or more
Few clouds at a height of 3500 ft
Becoming
from 18 at 02 UTC to 18 at 05 UTC
Visibility: 8000 m
Probability 30%
from 18 at 03 UTC to 18 at 10 UTC
Visibility: 0200 m
Broken clouds at a height lower than 100 ft
fog
Becoming
from 18 at 08 UTC to 18 at 11 UTC
Visibility 10 km or more

TAF: EGAA 171700Z 1718/1818 30006KT 9999 FEW035 BECMG 1802/1805 8000 PROB30 1803/1810 0200 FG BKN000 BECMG 1808/1811 9999

Weather observations and forecasts of more than 4000 airports (METAR and TAF reports).

The available stations are represented by yellow and red dots on the map.

Hover mouse over dot to see the name of the station.

Then click to see weather observations and forecasts.

To change the map : click on the green buttons with a black cross to zoom in, on the green button with a dash to zoom out, or on the green arrows for adjacent maps.


METAR-TAF: